Tokyo, Japan
Current Conditions -  °F | °C
As of 9:14 AM on Wednesday 26 Nov 2014 (Local Time) from RJTT Reporting Station
Rain Showers Rain Showers  
Wind Chill: 42°   Ceiling: 1000
Heat Index: 48°   Visibility: 2.5mi
Dew Point: 46°   Wind: 18mph
Humidity: 93%   Direction: 340°NNW
Pressure: 29.97"   Gusts: NA
Location:  35.67°N, 139.77°E
Report Text: RJTT 260014Z 34016KT 4000 SHRA BR FEW006 BKN010 BKN015 09/08 Q1015 RMK 1ST006 5ST010 6CU015 A2998 MOD TURB OBS AT 0006Z OVER STONE 13000FT BY B763
Loading
Personal Weather Stations






























Interactive Weather Map New forecast layout! Learn more

10-Day Weather Forecast

Advertisements
Track Severe Weather on mobile